sensor_id;sensor_type;location;lat;lon;timestamp;temperature;humidity
26063;DHT22;13837;48.562;12.108;2023-09-12T00:01:43;16.30;99.90
26063;DHT22;13837;48.562;12.108;2023-09-12T00:04:12;16.20;99.90
26063;DHT22;13837;48.562;12.108;2023-09-12T00:06:42;16.20;99.90
26063;DHT22;13837;48.562;12.108;2023-09-12T00:09:12;16.10;99.90
26063;DHT22;13837;48.562;12.108;2023-09-12T00:11:45;16.00;99.90
26063;DHT22;13837;48.562;12.108;2023-09-12T00:14:17;16.00;99.90
26063;DHT22;13837;48.562;12.108;2023-09-12T00:16:46;16.10;99.90
26063;DHT22;13837;48.562;12.108;2023-09-12T00:19:17;16.10;99.90
26063;DHT22;13837;48.562;12.108;2023-09-12T00:21:52;16.00;99.90
26063;DHT22;13837;48.562;12.108;2023-09-12T00:24:23;16.00;99.90
26063;DHT22;13837;48.562;12.108;2023-09-12T00:26:57;16.00;99.90
26063;DHT22;13837;48.562;12.108;2023-09-12T00:29:51;16.00;99.90
26063;DHT22;13837;48.562;12.108;2023-09-12T00:32:20;15.90;99.90
26063;DHT22;13837;48.562;12.108;2023-09-12T00:35:19;15.80;99.90
26063;DHT22;13837;48.562;12.108;2023-09-12T00:37:53;15.80;99.90
26063;DHT22;13837;48.562;12.108;2023-09-12T00:40:25;15.70;99.90
26063;DHT22;13837;48.562;12.108;2023-09-12T00:43:19;15.70;99.90
26063;DHT22;13837;48.562;12.108;2023-09-12T00:45:48;15.70;99.90
26063;DHT22;13837;48.562;12.108;2023-09-12T00:48:24;15.70;99.90
26063;DHT22;13837;48.562;12.108;2023-09-12T00:50:53;15.70;99.90
26063;DHT22;13837;48.562;12.108;2023-09-12T00:53:25;15.70;99.90
26063;DHT22;13837;48.562;12.108;2023-09-12T00:55:57;15.70;99.90
26063;DHT22;13837;48.562;12.108;2023-09-12T00:58:25;15.70;99.90
26063;DHT22;13837;48.562;12.108;2023-09-12T01:00:58;15.70;99.90
26063;DHT22;13837;48.562;12.108;2023-09-12T01:03:28;15.60;99.90
26063;DHT22;13837;48.562;12.108;2023-09-12T01:05:59;15.60;99.90
26063;DHT22;13837;48.562;12.108;2023-09-12T01:08:27;15.70;99.90
26063;DHT22;13837;48.562;12.108;2023-09-12T01:10:58;15.70;99.90
26063;DHT22;13837;48.562;12.108;2023-09-12T01:13:31;15.70;99.90
26063;DHT22;13837;48.562;12.108;2023-09-12T01:16:02;15.60;99.90
26063;DHT22;13837;48.562;12.108;2023-09-12T01:18:35;15.60;99.90
26063;DHT22;13837;48.562;12.108;2023-09-12T01:21:37;15.50;99.90
26063;DHT22;13837;48.562;12.108;2023-09-12T01:24:27;15.60;99.90
26063;DHT22;13837;48.562;12.108;2023-09-12T01:27:25;15.60;99.90
26063;DHT22;13837;48.562;12.108;2023-09-12T01:30:02;15.60;99.90
26063;DHT22;13837;48.562;12.108;2023-09-12T01:32:34;15.50;99.90
26063;DHT22;13837;48.562;12.108;2023-09-12T01:35:09;15.60;99.90
26063;DHT22;13837;48.562;12.108;2023-09-12T01:37:43;15.50;99.90
26063;DHT22;13837;48.562;12.108;2023-09-12T01:40:11;15.60;99.90
26063;DHT22;13837;48.562;12.108;2023-09-12T01:42:46;15.60;99.90
26063;DHT22;13837;48.562;12.108;2023-09-12T01:45:18;15.50;99.90
26063;DHT22;13837;48.562;12.108;2023-09-12T01:47:48;15.50;99.90
26063;DHT22;13837;48.562;12.108;2023-09-12T01:50:22;15.50;99.90
26063;DHT22;13837;48.562;12.108;2023-09-12T01:52:52;15.50;99.90
26063;DHT22;13837;48.562;12.108;2023-09-12T01:55:23;15.50;99.90
26063;DHT22;13837;48.562;12.108;2023-09-12T01:58:03;15.40;99.90
26063;DHT22;13837;48.562;12.108;2023-09-12T02:00:34;15.40;99.90
26063;DHT22;13837;48.562;12.108;2023-09-12T02:03:06;15.30;99.90
26063;DHT22;13837;48.562;12.108;2023-09-12T02:05:38;15.30;99.90
26063;DHT22;13837;48.562;12.108;2023-09-12T02:08:06;15.30;99.90
26063;DHT22;13837;48.562;12.108;2023-09-12T02:10:36;15.10;99.90
26063;DHT22;13837;48.562;12.108;2023-09-12T02:13:04;15.10;99.90
26063;DHT22;13837;48.562;12.108;2023-09-12T02:15:33;15.10;99.90
26063;DHT22;13837;48.562;12.108;2023-09-12T02:18:12;15.10;99.90
26063;DHT22;13837;48.562;12.108;2023-09-12T02:20:41;15.10;99.90
26063;DHT22;13837;48.562;12.108;2023-09-12T02:23:13;15.10;99.90
26063;DHT22;13837;48.562;12.108;2023-09-12T02:25:42;15.00;99.90
26063;DHT22;13837;48.562;12.108;2023-09-12T02:28:13;15.00;99.90
26063;DHT22;13837;48.562;12.108;2023-09-12T02:30:42;15.00;99.90
26063;DHT22;13837;48.562;12.108;2023-09-12T02:33:11;15.00;99.90
26063;DHT22;13837;48.562;12.108;2023-09-12T02:35:39;15.00;99.90
26063;DHT22;13837;48.562;12.108;2023-09-12T02:38:13;15.00;99.90
26063;DHT22;13837;48.562;12.108;2023-09-12T02:40:44;15.00;99.90
26063;DHT22;13837;48.562;12.108;2023-09-12T02:43:12;15.00;99.90
26063;DHT22;13837;48.562;12.108;2023-09-12T02:45:58;14.90;99.90
26063;DHT22;13837;48.562;12.108;2023-09-12T02:48:26;14.90;99.90
26063;DHT22;13837;48.562;12.108;2023-09-12T02:50:53;14.90;99.90
26063;DHT22;13837;48.562;12.108;2023-09-12T02:53:24;14.90;99.90
26063;DHT22;13837;48.562;12.108;2023-09-12T02:55:52;14.90;99.90
26063;DHT22;13837;48.562;12.108;2023-09-12T02:58:20;14.90;99.90
26063;DHT22;13837;48.562;12.108;2023-09-12T03:00:48;14.80;99.90
26063;DHT22;13837;48.562;12.108;2023-09-12T03:03:32;14.80;99.90
26063;DHT22;13837;48.562;12.108;2023-09-12T03:06:01;14.80;99.90
26063;DHT22;13837;48.562;12.108;2023-09-12T03:08:33;14.80;99.90
26063;DHT22;13837;48.562;12.108;2023-09-12T03:11:03;14.70;99.90
26063;DHT22;13837;48.562;12.108;2023-09-12T03:13:31;14.80;99.90
26063;DHT22;13837;48.562;12.108;2023-09-12T03:16:03;14.80;99.90
26063;DHT22;13837;48.562;12.108;2023-09-12T03:18:31;14.80;99.90
26063;DHT22;13837;48.562;12.108;2023-09-12T03:21:04;14.80;99.90
26063;DHT22;13837;48.562;12.108;2023-09-12T03:23:35;14.90;99.90
26063;DHT22;13837;48.562;12.108;2023-09-12T03:26:04;14.90;99.90
26063;DHT22;13837;48.562;12.108;2023-09-12T03:28:34;14.90;99.90
26063;DHT22;13837;48.562;12.108;2023-09-12T03:31:10;15.00;99.90
26063;DHT22;13837;48.562;12.108;2023-09-12T03:33:43;14.90;99.90
26063;DHT22;13837;48.562;12.108;2023-09-12T03:36:17;14.90;99.90
26063;DHT22;13837;48.562;12.108;2023-09-12T03:38:44;14.90;99.90
26063;DHT22;13837;48.562;12.108;2023-09-12T03:41:12;14.90;99.90
26063;DHT22;13837;48.562;12.108;2023-09-12T03:43:41;14.90;99.90
26063;DHT22;13837;48.562;12.108;2023-09-12T03:46:10;14.90;99.90
26063;DHT22;13837;48.562;12.108;2023-09-12T03:48:38;15.00;99.90
26063;DHT22;13837;48.562;12.108;2023-09-12T03:51:07;15.00;99.90
26063;DHT22;13837;48.562;12.108;2023-09-12T03:53:43;15.00;99.90
26063;DHT22;13837;48.562;12.108;2023-09-12T03:56:10;14.90;99.90
26063;DHT22;13837;48.562;12.108;2023-09-12T03:58:41;15.00;99.90
26063;DHT22;13837;48.562;12.108;2023-09-12T04:01:15;15.00;99.90
26063;DHT22;13837;48.562;12.108;2023-09-12T04:03:44;14.90;99.90
26063;DHT22;13837;48.562;12.108;2023-09-12T04:06:15;15.00;99.90
26063;DHT22;13837;48.562;12.108;2023-09-12T04:08:44;14.90;99.90
26063;DHT22;13837;48.562;12.108;2023-09-12T04:11:11;14.90;99.90
26063;DHT22;13837;48.562;12.108;2023-09-12T04:13:44;15.00;99.90
26063;DHT22;13837;48.562;12.108;2023-09-12T04:16:12;14.90;99.90
26063;DHT22;13837;48.562;12.108;2023-09-12T04:18:46;14.90;99.90
26063;DHT22;13837;48.562;12.108;2023-09-12T04:21:17;14.90;99.90
26063;DHT22;13837;48.562;12.108;2023-09-12T04:23:44;14.80;99.90
26063;DHT22;13837;48.562;12.108;2023-09-12T04:26:14;14.90;99.90
26063;DHT22;13837;48.562;12.108;2023-09-12T04:28:48;14.80;99.90
26063;DHT22;13837;48.562;12.108;2023-09-12T04:31:20;14.80;99.90
26063;DHT22;13837;48.562;12.108;2023-09-12T04:33:50;14.80;99.90
26063;DHT22;13837;48.562;12.108;2023-09-12T04:36:17;14.80;99.90
26063;DHT22;13837;48.562;12.108;2023-09-12T04:38:43;14.70;99.90
26063;DHT22;13837;48.562;12.108;2023-09-12T04:41:11;14.90;99.90
26063;DHT22;13837;48.562;12.108;2023-09-12T04:43:40;15.10;99.90
26063;DHT22;13837;48.562;12.108;2023-09-12T04:46:06;15.30;99.90
26063;DHT22;13837;48.562;12.108;2023-09-12T04:48:32;15.40;99.90
26063;DHT22;13837;48.562;12.108;2023-09-12T04:50:58;15.40;99.90
26063;DHT22;13837;48.562;12.108;2023-09-12T04:53:23;15.30;99.90
26063;DHT22;13837;48.562;12.108;2023-09-12T04:55:52;15.30;99.90
26063;DHT22;13837;48.562;12.108;2023-09-12T04:58:18;15.30;99.90
26063;DHT22;13837;48.562;12.108;2023-09-12T05:00:45;15.30;99.90
26063;DHT22;13837;48.562;12.108;2023-09-12T05:03:11;15.30;99.90
26063;DHT22;13837;48.562;12.108;2023-09-12T05:05:36;15.20;99.90
26063;DHT22;13837;48.562;12.108;2023-09-12T05:08:03;15.10;99.90
26063;DHT22;13837;48.562;12.108;2023-09-12T05:10:30;15.10;99.90
26063;DHT22;13837;48.562;12.108;2023-09-12T05:12:55;15.10;99.90
26063;DHT22;13837;48.562;12.108;2023-09-12T05:15:21;15.10;99.90
26063;DHT22;13837;48.562;12.108;2023-09-12T05:17:47;15.10;99.90
26063;DHT22;13837;48.562;12.108;2023-09-12T05:20:13;15.10;99.90
26063;DHT22;13837;48.562;12.108;2023-09-12T05:22:39;15.10;99.90
26063;DHT22;13837;48.562;12.108;2023-09-12T05:25:05;15.00;99.90
26063;DHT22;13837;48.562;12.108;2023-09-12T05:27:31;15.00;99.90
26063;DHT22;13837;48.562;12.108;2023-09-12T05:29:57;15.00;99.90
26063;DHT22;13837;48.562;12.108;2023-09-12T05:32:22;15.10;99.90
26063;DHT22;13837;48.562;12.108;2023-09-12T05:34:48;15.10;99.90
26063;DHT22;13837;48.562;12.108;2023-09-12T05:37:15;15.10;99.90
26063;DHT22;13837;48.562;12.108;2023-09-12T05:39:41;15.20;99.90
26063;DHT22;13837;48.562;12.108;2023-09-12T05:42:07;15.30;99.90
26063;DHT22;13837;48.562;12.108;2023-09-12T05:44:33;15.60;99.90
26063;DHT22;13837;48.562;12.108;2023-09-12T05:46:59;15.90;99.90
26063;DHT22;13837;48.562;12.108;2023-09-12T05:49:24;16.40;99.90
26063;DHT22;13837;48.562;12.108;2023-09-12T05:51:50;16.80;99.90
26063;DHT22;13837;48.562;12.108;2023-09-12T05:54:16;17.30;99.90
26063;DHT22;13837;48.562;12.108;2023-09-12T05:56:42;17.80;99.90
26063;DHT22;13837;48.562;12.108;2023-09-12T05:59:08;18.20;99.90
26063;DHT22;13837;48.562;12.108;2023-09-12T06:01:39;18.60;99.90
26063;DHT22;13837;48.562;12.108;2023-09-12T06:04:06;18.90;99.90
26063;DHT22;13837;48.562;12.108;2023-09-12T06:06:32;18.80;99.90
26063;DHT22;13837;48.562;12.108;2023-09-12T06:08:58;18.90;99.90
26063;DHT22;13837;48.562;12.108;2023-09-12T06:11:24;19.00;99.90
26063;DHT22;13837;48.562;12.108;2023-09-12T06:13:49;19.00;99.90
26063;DHT22;13837;48.562;12.108;2023-09-12T06:16:15;19.10;99.90
26063;DHT22;13837;48.562;12.108;2023-09-12T06:18:41;19.10;99.90
26063;DHT22;13837;48.562;12.108;2023-09-12T06:21:06;19.20;99.90
26063;DHT22;13837;48.562;12.108;2023-09-12T06:23:34;19.10;99.90
26063;DHT22;13837;48.562;12.108;2023-09-12T06:26:00;19.20;99.90
26063;DHT22;13837;48.562;12.108;2023-09-12T06:28:27;19.20;99.90
26063;DHT22;13837;48.562;12.108;2023-09-12T06:30:53;19.40;99.90
26063;DHT22;13837;48.562;12.108;2023-09-12T06:33:19;19.40;99.90
26063;DHT22;13837;48.562;12.108;2023-09-12T06:35:50;19.50;99.90
26063;DHT22;13837;48.562;12.108;2023-09-12T06:38:19;19.50;99.90
26063;DHT22;13837;48.562;12.108;2023-09-12T06:40:45;19.60;99.90
26063;DHT22;13837;48.562;12.108;2023-09-12T06:43:14;19.50;99.90
26063;DHT22;13837;48.562;12.108;2023-09-12T06:45:43;19.60;99.90
26063;DHT22;13837;48.562;12.108;2023-09-12T06:48:09;19.60;99.90
26063;DHT22;13837;48.562;12.108;2023-09-12T06:50:35;19.60;99.90
26063;DHT22;13837;48.562;12.108;2023-09-12T06:53:04;19.60;99.90
26063;DHT22;13837;48.562;12.108;2023-09-12T06:55:31;19.50;99.90
26063;DHT22;13837;48.562;12.108;2023-09-12T06:57:57;19.50;99.90
26063;DHT22;13837;48.562;12.108;2023-09-12T07:00:22;19.60;99.90
26063;DHT22;13837;48.562;12.108;2023-09-12T07:02:49;19.50;99.90
26063;DHT22;13837;48.562;12.108;2023-09-12T07:05:15;19.60;99.90
26063;DHT22;13837;48.562;12.108;2023-09-12T07:07:41;19.60;99.90
26063;DHT22;13837;48.562;12.108;2023-09-12T07:10:07;19.60;99.90
26063;DHT22;13837;48.562;12.108;2023-09-12T07:12:33;19.70;99.90
26063;DHT22;13837;48.562;12.108;2023-09-12T07:14:59;19.80;99.90
26063;DHT22;13837;48.562;12.108;2023-09-12T07:17:28;19.80;99.90
26063;DHT22;13837;48.562;12.108;2023-09-12T07:19:53;19.80;99.90
26063;DHT22;13837;48.562;12.108;2023-09-12T07:22:19;19.90;99.90
26063;DHT22;13837;48.562;12.108;2023-09-12T07:24:44;20.00;99.90
26063;DHT22;13837;48.562;12.108;2023-09-12T07:27:10;20.00;99.90
26063;DHT22;13837;48.562;12.108;2023-09-12T07:29:36;20.10;99.90
26063;DHT22;13837;48.562;12.108;2023-09-12T07:32:02;20.20;99.90
26063;DHT22;13837;48.562;12.108;2023-09-12T07:34:28;20.30;99.90
26063;DHT22;13837;48.562;12.108;2023-09-12T07:36:53;20.40;99.90
26063;DHT22;13837;48.562;12.108;2023-09-12T07:39:19;20.50;99.90
26063;DHT22;13837;48.562;12.108;2023-09-12T07:41:45;20.70;99.90
26063;DHT22;13837;48.562;12.108;2023-09-12T07:44:11;20.90;99.90
26063;DHT22;13837;48.562;12.108;2023-09-12T07:46:40;21.00;99.90
26063;DHT22;13837;48.562;12.108;2023-09-12T07:49:05;21.00;99.90
26063;DHT22;13837;48.562;12.108;2023-09-12T07:51:31;21.10;99.90
26063;DHT22;13837;48.562;12.108;2023-09-12T07:53:57;21.20;99.90
26063;DHT22;13837;48.562;12.108;2023-09-12T07:56:23;21.40;99.90
26063;DHT22;13837;48.562;12.108;2023-09-12T07:58:48;21.50;99.90
26063;DHT22;13837;48.562;12.108;2023-09-12T08:01:15;21.60;99.90
26063;DHT22;13837;48.562;12.108;2023-09-12T08:03:42;21.70;99.90
26063;DHT22;13837;48.562;12.108;2023-09-12T08:06:08;21.80;99.90
26063;DHT22;13837;48.562;12.108;2023-09-12T08:08:34;21.90;99.90
26063;DHT22;13837;48.562;12.108;2023-09-12T08:11:00;22.00;99.90
26063;DHT22;13837;48.562;12.108;2023-09-12T08:13:27;22.00;99.90
26063;DHT22;13837;48.562;12.108;2023-09-12T08:15:53;22.10;99.90
26063;DHT22;13837;48.562;12.108;2023-09-12T08:18:19;22.20;99.90
26063;DHT22;13837;48.562;12.108;2023-09-12T08:20:45;22.40;99.90
26063;DHT22;13837;48.562;12.108;2023-09-12T08:23:11;22.60;99.90
26063;DHT22;13837;48.562;12.108;2023-09-12T08:25:37;22.70;99.90
26063;DHT22;13837;48.562;12.108;2023-09-12T08:28:02;22.90;99.90
26063;DHT22;13837;48.562;12.108;2023-09-12T08:30:28;23.00;99.90
26063;DHT22;13837;48.562;12.108;2023-09-12T08:32:58;23.10;99.90
26063;DHT22;13837;48.562;12.108;2023-09-12T08:35:23;23.10;99.90
26063;DHT22;13837;48.562;12.108;2023-09-12T08:37:51;23.10;99.90
26063;DHT22;13837;48.562;12.108;2023-09-12T08:40:17;23.40;99.90
26063;DHT22;13837;48.562;12.108;2023-09-12T08:42:44;23.50;99.90
26063;DHT22;13837;48.562;12.108;2023-09-12T08:45:13;23.70;99.90
26063;DHT22;13837;48.562;12.108;2023-09-12T08:47:41;23.80;99.90
26063;DHT22;13837;48.562;12.108;2023-09-12T08:50:13;24.00;99.90
26063;DHT22;13837;48.562;12.108;2023-09-12T08:52:43;24.10;99.90
26063;DHT22;13837;48.562;12.108;2023-09-12T08:55:10;24.30;99.90
26063;DHT22;13837;48.562;12.108;2023-09-12T08:57:41;24.20;99.90
26063;DHT22;13837;48.562;12.108;2023-09-12T09:00:08;24.30;99.90
26063;DHT22;13837;48.562;12.108;2023-09-12T09:02:38;24.40;99.90
26063;DHT22;13837;48.562;12.108;2023-09-12T09:05:04;24.50;99.90
26063;DHT22;13837;48.562;12.108;2023-09-12T09:07:35;24.60;99.90
26063;DHT22;13837;48.562;12.108;2023-09-12T09:10:02;24.80;99.90
26063;DHT22;13837;48.562;12.108;2023-09-12T09:12:30;24.80;99.90
26063;DHT22;13837;48.562;12.108;2023-09-12T09:14:56;25.00;99.90
26063;DHT22;13837;48.562;12.108;2023-09-12T09:17:23;25.20;99.90
26063;DHT22;13837;48.562;12.108;2023-09-12T09:19:49;25.50;99.90
26063;DHT22;13837;48.562;12.108;2023-09-12T09:22:15;25.40;99.90
26063;DHT22;13837;48.562;12.108;2023-09-12T09:24:41;25.50;99.90
26063;DHT22;13837;48.562;12.108;2023-09-12T09:27:07;25.70;99.90
26063;DHT22;13837;48.562;12.108;2023-09-12T09:29:48;25.90;99.90
26063;DHT22;13837;48.562;12.108;2023-09-12T09:32:18;26.10;99.90
26063;DHT22;13837;48.562;12.108;2023-09-12T09:34:46;26.00;99.90
26063;DHT22;13837;48.562;12.108;2023-09-12T09:37:12;25.90;99.90
26063;DHT22;13837;48.562;12.108;2023-09-12T09:39:41;25.70;99.90
26063;DHT22;13837;48.562;12.108;2023-09-12T09:42:10;25.70;99.90
26063;DHT22;13837;48.562;12.108;2023-09-12T09:44:36;25.80;99.90
26063;DHT22;13837;48.562;12.108;2023-09-12T09:47:02;25.90;99.90
26063;DHT22;13837;48.562;12.108;2023-09-12T09:49:31;26.20;99.90
26063;DHT22;13837;48.562;12.108;2023-09-12T09:51:57;26.40;99.90
26063;DHT22;13837;48.562;12.108;2023-09-12T09:54:27;26.50;99.90
26063;DHT22;13837;48.562;12.108;2023-09-12T09:56:54;26.40;99.90
26063;DHT22;13837;48.562;12.108;2023-09-12T09:59:23;26.40;99.90
26063;DHT22;13837;48.562;12.108;2023-09-12T10:01:50;26.50;99.90
26063;DHT22;13837;48.562;12.108;2023-09-12T10:04:17;26.80;99.90
26063;DHT22;13837;48.562;12.108;2023-09-12T10:06:45;27.10;99.90
26063;DHT22;13837;48.562;12.108;2023-09-12T10:09:14;27.10;99.90
26063;DHT22;13837;48.562;12.108;2023-09-12T10:11:42;27.30;99.90
26063;DHT22;13837;48.562;12.108;2023-09-12T10:14:09;27.20;99.90
26063;DHT22;13837;48.562;12.108;2023-09-12T10:16:47;27.50;99.90
26063;DHT22;13837;48.562;12.108;2023-09-12T10:19:22;27.80;99.90
26063;DHT22;13837;48.562;12.108;2023-09-12T10:24:17;28.20;99.90
26063;DHT22;13837;48.562;12.108;2023-09-12T10:26:46;28.30;99.90
26063;DHT22;13837;48.562;12.108;2023-09-12T10:29:14;28.40;99.90
26063;DHT22;13837;48.562;12.108;2023-09-12T10:31:43;28.50;99.90
26063;DHT22;13837;48.562;12.108;2023-09-12T10:34:11;28.60;99.90
26063;DHT22;13837;48.562;12.108;2023-09-12T10:36:42;28.80;99.90
26063;DHT22;13837;48.562;12.108;2023-09-12T10:39:10;28.90;99.90
26063;DHT22;13837;48.562;12.108;2023-09-12T10:41:39;29.00;99.90
26063;DHT22;13837;48.562;12.108;2023-09-12T10:44:10;29.10;99.90
26063;DHT22;13837;48.562;12.108;2023-09-12T10:46:40;29.30;99.90
26063;DHT22;13837;48.562;12.108;2023-09-12T10:49:10;29.40;99.90
26063;DHT22;13837;48.562;12.108;2023-09-12T10:51:41;29.30;99.90
26063;DHT22;13837;48.562;12.108;2023-09-12T10:54:08;29.20;99.90
26063;DHT22;13837;48.562;12.108;2023-09-12T10:56:35;29.30;99.90
26063;DHT22;13837;48.562;12.108;2023-09-12T11:01:33;29.40;99.90
26063;DHT22;13837;48.562;12.108;2023-09-12T11:06:46;29.30;99.90
26063;DHT22;13837;48.562;12.108;2023-09-12T11:09:22;29.40;99.90
26063;DHT22;13837;48.562;12.108;2023-09-12T11:11:54;29.70;99.90
26063;DHT22;13837;48.562;12.108;2023-09-12T11:14:20;29.80;99.90
26063;DHT22;13837;48.562;12.108;2023-09-12T11:17:22;29.80;99.90
26063;DHT22;13837;48.562;12.108;2023-09-12T11:19:52;30.10;99.90
26063;DHT22;13837;48.562;12.108;2023-09-12T11:24:48;30.40;99.90
26063;DHT22;13837;48.562;12.108;2023-09-12T11:27:14;30.50;99.90
26063;DHT22;13837;48.562;12.108;2023-09-12T11:29:40;30.60;99.90
26063;DHT22;13837;48.562;12.108;2023-09-12T11:32:07;30.40;99.90
26063;DHT22;13837;48.562;12.108;2023-09-12T11:34:38;30.10;99.90
26063;DHT22;13837;48.562;12.108;2023-09-12T11:37:04;30.00;99.90
26063;DHT22;13837;48.562;12.108;2023-09-12T11:39:38;29.80;99.90
26063;DHT22;13837;48.562;12.108;2023-09-12T11:42:05;29.90;99.90
26063;DHT22;13837;48.562;12.108;2023-09-12T11:44:34;30.00;99.90
26063;DHT22;13837;48.562;12.108;2023-09-12T11:47:00;30.20;99.90
26063;DHT22;13837;48.562;12.108;2023-09-12T11:49:42;30.40;99.90
26063;DHT22;13837;48.562;12.108;2023-09-12T11:52:14;30.60;99.90
26063;DHT22;13837;48.562;12.108;2023-09-12T11:54:45;30.40;99.90
26063;DHT22;13837;48.562;12.108;2023-09-12T11:57:13;30.50;99.90
26063;DHT22;13837;48.562;12.108;2023-09-12T11:59:40;30.60;99.90
26063;DHT22;13837;48.562;12.108;2023-09-12T12:02:07;30.70;99.90
26063;DHT22;13837;48.562;12.108;2023-09-12T12:04:33;30.60;99.90
26063;DHT22;13837;48.562;12.108;2023-09-12T12:07:00;30.80;99.90
26063;DHT22;13837;48.562;12.108;2023-09-12T12:09:27;30.90;99.90
26063;DHT22;13837;48.562;12.108;2023-09-12T12:11:53;30.70;99.90
26063;DHT22;13837;48.562;12.108;2023-09-12T12:14:19;30.90;99.90
26063;DHT22;13837;48.562;12.108;2023-09-12T12:16:46;30.90;99.90
26063;DHT22;13837;48.562;12.108;2023-09-12T12:19:12;30.70;99.90
26063;DHT22;13837;48.562;12.108;2023-09-12T12:21:42;30.80;99.90
26063;DHT22;13837;48.562;12.108;2023-09-12T12:24:13;30.70;99.90
26063;DHT22;13837;48.562;12.108;2023-09-12T12:26:43;30.80;99.90
26063;DHT22;13837;48.562;12.108;2023-09-12T12:29:10;30.90;99.90
26063;DHT22;13837;48.562;12.108;2023-09-12T12:31:39;31.10;99.90
26063;DHT22;13837;48.562;12.108;2023-09-12T12:34:06;31.20;99.90
26063;DHT22;13837;48.562;12.108;2023-09-12T12:36:31;31.30;99.90
26063;DHT22;13837;48.562;12.108;2023-09-12T12:38:57;31.40;99.90
26063;DHT22;13837;48.562;12.108;2023-09-12T12:41:29;31.70;99.90
26063;DHT22;13837;48.562;12.108;2023-09-12T12:44:01;31.70;99.90
26063;DHT22;13837;48.562;12.108;2023-09-12T12:46:28;31.70;99.90
26063;DHT22;13837;48.562;12.108;2023-09-12T12:48:54;31.50;99.90
26063;DHT22;13837;48.562;12.108;2023-09-12T12:51:22;31.30;99.90
26063;DHT22;13837;48.562;12.108;2023-09-12T12:53:50;31.10;99.90
26063;DHT22;13837;48.562;12.108;2023-09-12T12:56:21;30.80;99.90
26063;DHT22;13837;48.562;12.108;2023-09-12T12:58:52;30.90;99.90
26063;DHT22;13837;48.562;12.108;2023-09-12T13:01:18;31.10;99.90
26063;DHT22;13837;48.562;12.108;2023-09-12T13:03:44;30.90;99.90
26063;DHT22;13837;48.562;12.108;2023-09-12T13:06:11;30.60;99.90
26063;DHT22;13837;48.562;12.108;2023-09-12T13:08:41;30.30;99.90
26063;DHT22;13837;48.562;12.108;2023-09-12T13:11:08;30.30;99.90
26063;DHT22;13837;48.562;12.108;2023-09-12T13:13:35;30.50;99.90
26063;DHT22;13837;48.562;12.108;2023-09-12T13:16:02;30.80;99.90
26063;DHT22;13837;48.562;12.108;2023-09-12T13:18:31;30.90;99.90
26063;DHT22;13837;48.562;12.108;2023-09-12T13:20:57;30.90;99.90
26063;DHT22;13837;48.562;12.108;2023-09-12T13:23:22;31.10;99.90
26063;DHT22;13837;48.562;12.108;2023-09-12T13:25:50;31.10;99.90
26063;DHT22;13837;48.562;12.108;2023-09-12T13:28:16;30.90;99.90
26063;DHT22;13837;48.562;12.108;2023-09-12T13:30:42;30.70;99.90
26063;DHT22;13837;48.562;12.108;2023-09-12T13:33:08;30.50;99.90
26063;DHT22;13837;48.562;12.108;2023-09-12T13:35:34;30.30;99.90
26063;DHT22;13837;48.562;12.108;2023-09-12T13:38:00;30.50;99.90
26063;DHT22;13837;48.562;12.108;2023-09-12T13:40:26;31.00;99.90
26063;DHT22;13837;48.562;12.108;2023-09-12T13:42:53;31.20;99.90
26063;DHT22;13837;48.562;12.108;2023-09-12T13:45:18;31.20;99.90
26063;DHT22;13837;48.562;12.108;2023-09-12T13:47:44;31.00;99.90
26063;DHT22;13837;48.562;12.108;2023-09-12T13:50:10;31.20;99.90
26063;DHT22;13837;48.562;12.108;2023-09-12T13:52:35;31.20;99.90
26063;DHT22;13837;48.562;12.108;2023-09-12T13:55:01;31.20;99.90
26063;DHT22;13837;48.562;12.108;2023-09-12T13:57:29;31.20;99.90
26063;DHT22;13837;48.562;12.108;2023-09-12T13:59:54;31.30;99.90
26063;DHT22;13837;48.562;12.108;2023-09-12T14:02:20;31.50;99.90
26063;DHT22;13837;48.562;12.108;2023-09-12T14:04:46;31.60;99.90
26063;DHT22;13837;48.562;12.108;2023-09-12T14:07:12;31.80;99.90
26063;DHT22;13837;48.562;12.108;2023-09-12T14:09:39;31.90;99.90
26063;DHT22;13837;48.562;12.108;2023-09-12T14:12:05;32.00;99.90
26063;DHT22;13837;48.562;12.108;2023-09-12T14:14:31;32.00;99.90
26063;DHT22;13837;48.562;12.108;2023-09-12T14:16:57;32.00;99.90
26063;DHT22;13837;48.562;12.108;2023-09-12T14:19:22;31.30;99.90
26063;DHT22;13837;48.562;12.108;2023-09-12T14:21:48;31.30;99.90
26063;DHT22;13837;48.562;12.108;2023-09-12T14:24:14;31.40;99.90
26063;DHT22;13837;48.562;12.108;2023-09-12T14:26:39;31.60;99.90
26063;DHT22;13837;48.562;12.108;2023-09-12T14:29:05;31.80;99.90
26063;DHT22;13837;48.562;12.108;2023-09-12T14:31:31;32.00;99.90
26063;DHT22;13837;48.562;12.108;2023-09-12T14:33:56;32.00;99.90
26063;DHT22;13837;48.562;12.108;2023-09-12T14:36:23;32.20;99.90
26063;DHT22;13837;48.562;12.108;2023-09-12T14:38:48;32.30;99.90
26063;DHT22;13837;48.562;12.108;2023-09-12T14:41:14;32.30;99.90
26063;DHT22;13837;48.562;12.108;2023-09-12T14:43:40;32.20;99.90
26063;DHT22;13837;48.562;12.108;2023-09-12T14:46:05;32.10;99.90
26063;DHT22;13837;48.562;12.108;2023-09-12T14:48:34;32.30;99.90
26063;DHT22;13837;48.562;12.108;2023-09-12T14:51:01;32.50;99.90
26063;DHT22;13837;48.562;12.108;2023-09-12T14:53:27;32.00;99.80
26063;DHT22;13837;48.562;12.108;2023-09-12T14:55:53;31.80;99.60
26063;DHT22;13837;48.562;12.108;2023-09-12T14:58:19;31.90;99.90
26063;DHT22;13837;48.562;12.108;2023-09-12T15:00:45;31.80;99.60
26063;DHT22;13837;48.562;12.108;2023-09-12T15:03:10;31.70;99.10
26063;DHT22;13837;48.562;12.108;2023-09-12T15:05:36;31.80;99.40
26063;DHT22;13837;48.562;12.108;2023-09-12T15:08:02;32.00;99.90
26063;DHT22;13837;48.562;12.108;2023-09-12T15:10:28;32.10;98.60
26063;DHT22;13837;48.562;12.108;2023-09-12T15:12:54;32.00;98.70
26063;DHT22;13837;48.562;12.108;2023-09-12T15:15:19;32.10;99.90
26063;DHT22;13837;48.562;12.108;2023-09-12T15:17:45;32.10;99.00
26063;DHT22;13837;48.562;12.108;2023-09-12T15:20:11;32.20;99.50
26063;DHT22;13837;48.562;12.108;2023-09-12T15:22:37;32.10;98.70
26063;DHT22;13837;48.562;12.108;2023-09-12T15:25:03;32.10;99.50
26063;DHT22;13837;48.562;12.108;2023-09-12T15:27:28;32.00;99.90
26063;DHT22;13837;48.562;12.108;2023-09-12T15:29:55;31.90;99.60
26063;DHT22;13837;48.562;12.108;2023-09-12T15:32:20;31.80;99.90
26063;DHT22;13837;48.562;12.108;2023-09-12T15:34:46;31.70;99.90